Eagle County Regional Airport Eagle US
ICAO: KEGE
IATA: EGE
Category: Medium
Scheduled Services: Yes

Elevation: 6548 ft
TransAlt. 18000 ft.

Airport Communications:
ATIS:135.575
AWOS 3:135.575
DENVER CNTR:128.65
CTAF:119.8
GND/CLNC DEL:121.8
EAGLES NEST:41.75
DENVER RDO:122.2
TWR:119.8

KEGE Zoom In..

If Map Doesn't Load, Click Here

Runways:

(A) RW 07 length 9000 ft width 150 ft
LOC 110.10 / hdg 69

(B) RW 25 length 9000 ft width 150 ft
LOC 110.10 / hdg 249

Location; KEGE
Day. 26 / Time. 09.56 Zulu
* Altimeter: 30.29
* Temperature: 02° c. 35.6°f.
* Wind from: 110° Speed 07 kn.
Dewpoint: -12° c.
Visibility: 10 Statute Miles.
Clouds: Clear (automated report).

KEGE 260956Z AUTO 11007KT 10SM CLR 02/M12 A3029 RMK AO2 SLP230 T00221122 FZRANO PNO $


Wind From 110°
Speed 07 kn.

 
 
jpsmedia.com for Web Design worldairports.se 2018   terms of use